createdAt,value
2022-11-27T00:01:45.418Z,101544.41
2022-11-27T00:04:14.475Z,101544.55
2022-11-27T00:06:42.950Z,101547.59
2022-11-27T00:09:13.615Z,101548.27
2022-11-27T00:11:43.011Z,101545.38
2022-11-27T00:14:12.994Z,101551.02
2022-11-27T00:16:41.921Z,101553.64
2022-11-27T00:19:11.573Z,101554.88
2022-11-27T00:21:40.463Z,101557.18
2022-11-27T00:24:10.117Z,101551.55
2022-11-27T00:26:39.297Z,101553.98
2022-11-27T00:29:08.631Z,101548.88
2022-11-27T00:31:38.341Z,101548.67
2022-11-27T00:34:09.137Z,101544.22
2022-11-27T00:36:38.348Z,101544.91
2022-11-27T00:39:07.157Z,101538.89
2022-11-27T00:41:35.655Z,101537.20
2022-11-27T00:44:04.923Z,101540.00
2022-11-27T00:46:35.221Z,101537.66
2022-11-27T00:49:06.476Z,101536.48
2022-11-27T00:51:35.475Z,101535.38
2022-11-27T00:54:05.317Z,101539.10
2022-11-27T00:56:36.354Z,101531.77
2022-11-27T00:59:06.249Z,101537.84
2022-11-27T05:02:48.957Z,101536.00
2022-11-27T05:05:18.081Z,101533.80
2022-11-27T05:07:47.218Z,101530.39
2022-11-27T05:10:16.338Z,101531.36
2022-11-27T05:12:45.700Z,101528.95
2022-11-27T05:15:14.628Z,101526.36
2022-11-27T05:17:44.118Z,101521.67
2022-11-27T05:20:13.289Z,101515.13
2022-11-27T05:22:42.433Z,101513.39
2022-11-27T05:25:10.944Z,101512.98
2022-11-27T05:27:39.626Z,101508.21
2022-11-27T05:30:08.657Z,101506.16
2022-11-27T05:32:37.795Z,101505.58
2022-11-27T05:35:06.381Z,101503.77
2022-11-27T05:37:35.408Z,101500.47
2022-11-27T05:40:04.730Z,101502.33
2022-11-27T05:42:33.697Z,101504.66
2022-11-27T05:45:02.567Z,101505.01
2022-11-27T05:47:31.583Z,101509.94
2022-11-27T05:50:00.825Z,101512.02
2022-11-27T05:52:29.845Z,101516.78
2022-11-27T05:54:59.161Z,101523.88
2022-11-27T05:57:29.376Z,101521.16
2022-11-27T05:59:58.929Z,101517.92
2022-11-27T06:02:29.625Z,101519.12
2022-11-27T06:04:59.115Z,101518.84
2022-11-27T06:07:27.966Z,101519.67
2022-11-27T06:09:57.090Z,101521.89
2022-11-27T06:12:25.554Z,101520.36
2022-11-27T06:14:54.602Z,101519.86
2022-11-27T06:17:23.650Z,101524.29
2022-11-27T06:19:52.596Z,101524.80
2022-11-27T06:22:21.393Z,101523.47
2022-11-27T06:24:51.019Z,101526.45
2022-11-27T06:27:19.969Z,101516.94
2022-11-27T06:29:49.072Z,101514.48
2022-11-27T06:32:17.952Z,101508.34
2022-11-27T06:34:50.379Z,101511.75
2022-11-27T06:37:20.341Z,101512.21
2022-11-27T06:39:49.929Z,101512.65
2022-11-27T06:42:18.753Z,101511.73
2022-11-27T06:44:48.137Z,101515.92
2022-11-27T06:47:17.346Z,101513.73
2022-11-27T06:49:46.492Z,101512.52
2022-11-27T06:52:15.362Z,101517.01
2022-11-27T06:54:44.368Z,101516.97
2022-11-27T06:57:15.526Z,101517.23
2022-11-27T06:59:44.700Z,101513.88
2022-11-27T07:02:16.090Z,101518.63
2022-11-27T07:04:46.004Z,101514.09
2022-11-27T07:07:14.325Z,101509.28
2022-11-27T07:09:42.849Z,101508.70
2022-11-27T07:12:11.454Z,101511.14
2022-11-27T07:14:39.946Z,101508.61
2022-11-27T07:17:08.430Z,101510.13
2022-11-27T07:19:37.359Z,101504.88
2022-11-27T07:22:06.081Z,101504.98
2022-11-27T07:24:36.191Z,101504.33
2022-11-27T07:27:05.355Z,101503.23
2022-11-27T07:29:33.530Z,101508.19
2022-11-27T07:32:02.296Z,101507.98
2022-11-27T07:34:30.486Z,101506.52
2022-11-27T07:36:59.456Z,101506.52
2022-11-27T07:39:54.179Z,101506.45
2022-11-27T07:42:37.519Z,101507.63
2022-11-27T07:45:07.489Z,101504.36
2022-11-27T07:47:36.620Z,101490.42
2022-11-27T07:50:07.664Z,101498.00
2022-11-27T07:52:41.069Z,101499.98
2022-11-27T07:55:10.824Z,101502.56
2022-11-27T07:57:42.820Z,101503.86
2022-11-27T08:00:11.389Z,101503.02
2022-11-27T08:02:40.296Z,101507.31
2022-11-27T08:05:12.711Z,101511.73
2022-11-27T08:07:42.516Z,101517.55
2022-11-27T08:10:10.959Z,101518.34
2022-11-27T08:12:39.717Z,101520.15
2022-11-27T08:15:09.023Z,101525.98
2022-11-27T08:17:38.016Z,101526.65
2022-11-27T08:20:07.638Z,101522.50
2022-11-27T08:22:36.969Z,101524.30
2022-11-27T08:25:06.351Z,101522.63
2022-11-27T08:27:34.871Z,101522.70
2022-11-27T08:30:04.560Z,101525.67
2022-11-27T08:32:33.485Z,101529.21
2022-11-27T08:35:05.333Z,101531.09
2022-11-27T08:37:34.330Z,101534.61
2022-11-27T08:40:03.285Z,101537.98
2022-11-27T08:42:31.491Z,101541.84
2022-11-27T08:45:00.467Z,101542.73
2022-11-27T08:47:28.891Z,101548.94
2022-11-27T08:49:58.157Z,101549.34
2022-11-27T08:52:27.986Z,101548.71
2022-11-27T08:54:57.991Z,101547.69
2022-11-27T08:57:27.322Z,101541.90
2022-11-27T08:59:55.845Z,101540.81
2022-11-27T09:02:24.534Z,101538.39
2022-11-27T09:04:53.499Z,101545.77
2022-11-27T09:07:22.377Z,101544.10
2022-11-27T09:09:51.375Z,101546.85
2022-11-27T09:12:20.798Z,101550.11
2022-11-27T09:14:49.351Z,101548.81
2022-11-27T09:17:19.446Z,101553.06
2022-11-27T09:19:48.090Z,101550.34
2022-11-27T09:22:16.564Z,101548.79
2022-11-27T09:24:45.647Z,101546.91
2022-11-27T09:27:14.401Z,101542.95
2022-11-27T09:29:43.088Z,101542.13
2022-11-27T09:32:12.170Z,101538.86
2022-11-27T09:34:40.954Z,101529.73
2022-11-27T09:37:10.124Z,101525.95
2022-11-27T09:39:39.349Z,101522.52
2022-11-27T09:42:16.164Z,101523.77
2022-11-27T09:44:52.444Z,101520.01
2022-11-27T09:47:41.281Z,101513.38
2022-11-27T09:50:18.331Z,101508.87
2022-11-27T09:52:57.063Z,101512.01
2022-11-27T09:55:33.970Z,101513.88
2022-11-27T09:58:06.732Z,101518.25
2022-11-27T10:00:35.659Z,101528.27
2022-11-27T10:03:07.641Z,101535.02
2022-11-27T10:05:49.915Z,101534.48
2022-11-27T10:08:29.781Z,101534.74
2022-11-27T10:11:17.884Z,101532.81
2022-11-27T10:13:47.523Z,101531.33
2022-11-27T10:16:32.562Z,101530.86
2022-11-27T10:19:09.421Z,101529.70
2022-11-27T10:21:46.029Z,101532.14
2022-11-27T10:24:21.340Z,101536.06
2022-11-27T10:26:53.471Z,101533.36
2022-11-27T10:29:24.992Z,101531.79
2022-11-27T10:32:00.808Z,101528.80
2022-11-27T10:34:30.768Z,101527.71
2022-11-27T10:37:01.968Z,101526.73
2022-11-27T10:39:50.592Z,101524.23
2022-11-27T10:42:23.733Z,101523.89
2022-11-27T10:45:00.501Z,101523.09
2022-11-27T10:47:33.634Z,101521.11
2022-11-27T10:50:03.602Z,101517.66
2022-11-27T10:52:34.417Z,101517.67
2022-11-27T10:55:05.851Z,101514.20
2022-11-27T10:57:53.638Z,101513.55
2022-11-27T11:00:24.776Z,101506.84
2022-11-27T11:03:05.325Z,101508.08
2022-11-27T11:05:57.486Z,101507.41
2022-11-27T11:08:25.707Z,101510.33
2022-11-27T11:10:58.052Z,101510.98
2022-11-27T11:13:30.367Z,101512.70
2022-11-27T11:16:07.436Z,101515.11
2022-11-27T11:18:45.146Z,101512.50
2022-11-27T11:21:16.420Z,101510.90
2022-11-27T11:23:51.213Z,101508.20
2022-11-27T11:26:19.727Z,101505.93
2022-11-27T11:28:50.844Z,101505.56
2022-11-27T11:31:22.611Z,101505.84
2022-11-27T11:33:54.672Z,101504.02
2022-11-27T11:36:23.881Z,101503.80
2022-11-27T11:38:54.533Z,101507.41
2022-11-27T11:41:27.473Z,101500.40
2022-11-27T11:43:57.983Z,101500.78
2022-11-27T11:46:30.624Z,101494.75
2022-11-27T11:49:03.038Z,101495.83
2022-11-27T11:51:44.450Z,101494.76
2022-11-27T11:54:39.600Z,101491.14
2022-11-27T11:57:35.574Z,101491.59
2022-11-27T12:00:04.510Z,101490.20
2022-11-27T12:02:43.540Z,101481.56
2022-11-27T12:05:22.261Z,101479.55
2022-11-27T12:07:57.379Z,101477.68
2022-11-27T12:10:29.283Z,101470.63
2022-11-27T12:12:58.692Z,101470.28
2022-11-27T12:15:48.577Z,101469.73
2022-11-27T12:18:17.570Z,101467.75
2022-11-27T12:21:04.958Z,101462.58
2022-11-27T12:23:53.704Z,101462.22
2022-11-27T12:26:28.642Z,101465.02
2022-11-27T12:29:16.352Z,101464.63
2022-11-27T12:32:04.043Z,101467.64
2022-11-27T12:34:53.302Z,101464.80
2022-11-27T12:37:28.931Z,101464.86
2022-11-27T12:40:09.819Z,101465.83
2022-11-27T12:42:52.902Z,101463.55
2022-11-27T12:45:28.636Z,101466.08
2022-11-27T12:48:01.604Z,101464.98
2022-11-27T12:50:38.400Z,101465.09
2022-11-27T12:53:29.185Z,101466.08
2022-11-27T12:56:10.335Z,101463.77
2022-11-27T12:58:44.069Z,101460.46
2022-11-27T13:01:33.031Z,101461.95
2022-11-27T13:04:08.266Z,101464.80
2022-11-27T13:06:43.771Z,101465.82
2022-11-27T13:09:19.741Z,101464.71
2022-11-27T13:11:52.622Z,101459.86
2022-11-27T13:14:25.077Z,101457.56
2022-11-27T13:17:05.704Z,101461.14
2022-11-27T13:19:40.403Z,101461.55
2022-11-27T13:22:15.313Z,101455.84
2022-11-27T13:24:49.043Z,101451.44
2022-11-27T13:27:27.446Z,101444.66
2022-11-27T13:30:02.696Z,101446.92
2022-11-27T13:32:37.315Z,101445.96
2022-11-27T13:35:09.352Z,101442.45
2022-11-27T13:37:41.863Z,101443.05
2022-11-27T13:40:18.243Z,101442.15
2022-11-27T13:42:51.688Z,101438.02
2022-11-27T13:45:25.271Z,101437.23
2022-11-27T13:47:58.161Z,101433.33
2022-11-27T13:50:31.839Z,101427.05
2022-11-27T13:53:08.136Z,101428.99
2022-11-27T13:55:40.227Z,101427.60
2022-11-27T13:58:09.772Z,101430.51
2022-11-27T14:00:46.264Z,101429.73
2022-11-27T14:03:24.869Z,101429.81
2022-11-27T14:05:55.297Z,101429.27
2022-11-27T14:08:28.591Z,101425.52
2022-11-27T14:11:01.529Z,101428.67
2022-11-27T14:13:36.750Z,101433.92
2022-11-27T14:16:20.199Z,101435.77
2022-11-27T14:18:53.336Z,101439.14
2022-11-27T14:21:43.268Z,101434.98
2022-11-27T14:24:26.550Z,101433.34
2022-11-27T14:26:58.543Z,101431.29
2022-11-27T14:29:32.442Z,101435.95
2022-11-27T14:32:04.289Z,101440.66
2022-11-27T14:34:35.980Z,101438.66
2022-11-27T14:37:05.590Z,101436.64
2022-11-27T14:39:37.450Z,101435.34
2022-11-27T14:42:11.589Z,101438.64
2022-11-27T14:44:41.682Z,101436.05
2022-11-27T14:47:20.123Z,101436.05
2022-11-27T14:49:56.138Z,101438.59
2022-11-27T14:52:26.613Z,101438.73
2022-11-27T14:54:56.972Z,101436.48
2022-11-27T14:57:27.180Z,101439.02
2022-11-27T15:00:17.372Z,101437.19
2022-11-27T15:02:50.254Z,101438.88
2022-11-27T15:05:28.903Z,101440.59
2022-11-27T15:07:59.828Z,101438.55
2022-11-27T15:10:32.038Z,101440.69
2022-11-27T15:13:02.695Z,101443.08
2022-11-27T15:15:36.516Z,101434.84
2022-11-27T15:18:07.362Z,101438.02
2022-11-27T15:20:39.066Z,101439.55
2022-11-27T15:23:34.912Z,101440.01
2022-11-27T15:26:03.214Z,101441.46
2022-11-27T15:28:37.493Z,101439.33
2022-11-27T15:31:25.064Z,101440.98
2022-11-27T15:34:04.736Z,101444.02
2022-11-27T15:36:41.516Z,101446.09
2022-11-27T15:39:29.300Z,101446.36
2022-11-27T15:41:59.094Z,101447.05
2022-11-27T15:44:29.727Z,101445.44
2022-11-27T15:47:00.226Z,101442.27
2022-11-27T15:49:28.941Z,101437.96
2022-11-27T15:51:58.090Z,101436.55
2022-11-27T15:54:27.280Z,101441.03
2022-11-27T15:56:55.459Z,101447.04
2022-11-27T15:59:25.552Z,101454.14
2022-11-27T16:01:56.646Z,101454.38
2022-11-27T16:04:25.490Z,101449.95
2022-11-27T16:06:53.930Z,101451.14
2022-11-27T16:09:22.356Z,101446.42
2022-11-27T16:11:51.155Z,101443.13
2022-11-27T16:14:35.166Z,101434.85
2022-11-27T16:17:04.059Z,101432.26
2022-11-27T16:19:32.964Z,101430.21
2022-11-27T16:22:06.057Z,101428.98
2022-11-27T16:24:39.462Z,101425.12
2022-11-27T16:27:09.001Z,101426.00
2022-11-27T16:29:37.973Z,101426.96
2022-11-27T16:32:10.573Z,101420.92
2022-11-27T16:34:46.113Z,101422.11
2022-11-27T16:37:21.552Z,101421.17
2022-11-27T16:39:56.743Z,101423.31
2022-11-27T16:42:31.459Z,101422.08
2022-11-27T16:46:48.800Z,101419.77
2022-11-27T16:49:26.214Z,101418.05
2022-11-27T16:52:04.728Z,101419.98
2022-11-27T16:54:43.109Z,101419.58
2022-11-27T16:57:18.738Z,101418.04
2022-11-27T16:59:57.541Z,101413.85
2022-11-27T17:02:36.105Z,101408.09
2022-11-27T17:05:15.088Z,101409.38
2022-11-27T17:07:49.183Z,101407.08
2022-11-27T17:10:24.715Z,101406.67
2022-11-27T17:12:57.929Z,101407.25
2022-11-27T17:15:36.382Z,101403.55
2022-11-27T17:18:17.299Z,101406.74
2022-11-27T17:20:53.224Z,101405.30
2022-11-27T17:23:26.117Z,101402.33
2022-11-27T17:25:58.513Z,101400.44
2022-11-27T17:28:30.939Z,101397.86
2022-11-27T17:31:02.451Z,101395.43
2022-11-27T17:33:32.151Z,101397.48
2022-11-27T17:36:01.412Z,101398.64
2022-11-27T17:38:31.925Z,101399.76
2022-11-27T17:41:09.168Z,101401.27
2022-11-27T17:43:38.734Z,101400.91
2022-11-27T17:46:09.376Z,101393.33
2022-11-27T17:48:38.589Z,101392.15
2022-11-27T17:51:08.440Z,101392.48
2022-11-27T17:53:38.528Z,101387.28
2022-11-27T17:56:10.431Z,101384.10
2022-11-27T17:58:40.839Z,101386.61
2022-11-27T18:01:23.459Z,101378.31
2022-11-27T18:03:55.457Z,101374.27
2022-11-27T18:06:25.693Z,101369.52
2022-11-27T18:08:57.480Z,101372.56
2022-11-27T18:11:30.719Z,101367.39
2022-11-27T18:14:02.887Z,101367.85
2022-11-27T18:16:35.983Z,101368.29
2022-11-27T18:19:09.086Z,101368.27
2022-11-27T18:21:39.234Z,101364.73
2022-11-27T18:24:25.248Z,101366.80
2022-11-27T18:27:11.775Z,101364.07
2022-11-27T18:29:45.349Z,101363.31
2022-11-27T18:32:15.902Z,101364.26
2022-11-27T18:34:46.143Z,101361.98
2022-11-27T18:37:15.459Z,101360.80
2022-11-27T18:39:46.079Z,101359.54
2022-11-27T18:42:16.258Z,101355.63
2022-11-27T18:44:46.094Z,101348.93
2022-11-27T18:47:17.044Z,101349.15
2022-11-27T18:49:49.030Z,101346.09
2022-11-27T18:52:18.220Z,101342.45
2022-11-27T18:54:48.804Z,101342.42
2022-11-27T18:57:20.107Z,101347.52
2022-11-27T18:59:50.114Z,101343.68
2022-11-27T19:02:20.676Z,101342.32
2022-11-27T19:04:50.799Z,101344.94
2022-11-27T19:07:20.170Z,101344.19
2022-11-27T19:09:49.135Z,101339.84
2022-11-27T19:12:17.860Z,101336.53
2022-11-27T19:14:47.351Z,101336.70
2022-11-27T19:17:16.536Z,101338.70
2022-11-27T19:19:54.879Z,101340.32
2022-11-27T19:22:25.079Z,101338.52
2022-11-27T19:24:58.294Z,101340.66
2022-11-27T19:27:27.579Z,101338.13
2022-11-27T19:29:57.232Z,101334.49
2022-11-27T19:32:27.446Z,101334.48
2022-11-27T19:34:56.923Z,101335.27
2022-11-27T19:37:34.616Z,101338.84
2022-11-27T19:40:07.093Z,101338.66
2022-11-27T19:42:36.021Z,101337.09
2022-11-27T19:45:04.998Z,101334.90
2022-11-27T19:47:33.603Z,101340.76
2022-11-27T19:50:02.855Z,101338.61
2022-11-27T19:52:32.693Z,101334.97
2022-11-27T19:55:02.302Z,101335.75
2022-11-27T19:57:32.317Z,101335.96
2022-11-27T20:00:02.720Z,101329.90
2022-11-27T20:02:42.675Z,101330.15
2022-11-27T20:05:12.004Z,101332.26
2022-11-27T20:07:41.924Z,101332.20
2022-11-27T20:10:13.683Z,101335.18
2022-11-27T20:12:43.539Z,101329.25
2022-11-27T20:15:17.752Z,101331.34
2022-11-27T20:17:47.508Z,101329.21
2022-11-27T20:20:17.777Z,101327.30
2022-11-27T20:22:48.999Z,101329.52
2022-11-27T20:25:20.683Z,101329.41
2022-11-27T20:27:51.677Z,101330.68
2022-11-27T20:30:21.481Z,101327.23
2022-11-27T20:32:50.333Z,101327.88
2022-11-27T20:35:19.684Z,101327.50
2022-11-27T20:37:48.546Z,101328.13
2022-11-27T20:40:17.434Z,101331.63
2022-11-27T20:42:47.952Z,101333.16
2022-11-27T20:45:20.319Z,101331.33
2022-11-27T20:47:51.448Z,101330.15
2022-11-27T20:50:21.575Z,101334.46
2022-11-27T20:52:51.317Z,101328.85
2022-11-27T20:55:21.672Z,101317.70
2022-11-27T20:57:54.635Z,101321.61
2022-11-27T21:00:24.867Z,101319.37
2022-11-27T21:02:55.080Z,101320.63
2022-11-27T21:05:24.467Z,101316.15
2022-11-27T21:07:54.060Z,101311.95
2022-11-27T21:10:27.861Z,101312.14
2022-11-27T21:12:57.306Z,101307.44
2022-11-27T21:15:26.773Z,101307.33
2022-11-27T21:17:56.399Z,101300.61
2022-11-27T21:20:25.719Z,101299.14
2022-11-27T21:22:55.239Z,101295.83
2022-11-27T21:25:25.745Z,101292.55
2022-11-27T21:27:58.702Z,101289.47
2022-11-27T21:30:30.165Z,101285.13
2022-11-27T21:32:59.424Z,101279.73
2022-11-27T21:35:31.753Z,101280.91
2022-11-27T21:38:03.490Z,101281.58
2022-11-27T21:40:33.700Z,101282.99
2022-11-27T21:43:02.318Z,101283.52
2022-11-27T21:45:31.162Z,101282.80
2022-11-27T21:48:00.655Z,101278.93
2022-11-27T21:50:29.846Z,101276.08
2022-11-27T21:52:59.153Z,101273.02
2022-11-27T21:55:29.921Z,101274.14
2022-11-27T21:58:00.380Z,101274.58
2022-11-27T22:00:29.455Z,101279.82
2022-11-27T22:02:58.219Z,101280.72
2022-11-27T22:05:26.883Z,101280.42
2022-11-27T22:07:56.474Z,101277.76
2022-11-27T22:10:25.299Z,101278.31
2022-11-27T22:12:54.083Z,101281.17
2022-11-27T22:15:23.167Z,101281.82
2022-11-27T22:17:52.266Z,101280.38
2022-11-27T22:20:20.725Z,101279.88
2022-11-27T22:22:49.404Z,101282.98
2022-11-27T22:25:18.380Z,101290.18
2022-11-27T22:27:47.031Z,101297.77
2022-11-27T22:30:15.879Z,101304.54
2022-11-27T22:32:44.525Z,101306.34
2022-11-27T22:35:13.896Z,101300.59
2022-11-27T22:37:43.159Z,101301.06
2022-11-27T22:40:13.716Z,101298.25
2022-11-27T22:42:42.778Z,101300.27
2022-11-27T22:45:11.837Z,101297.86
2022-11-27T22:47:41.009Z,101296.96
2022-11-27T22:50:09.632Z,101300.35
2022-11-27T22:52:38.761Z,101297.58
2022-11-27T22:55:07.675Z,101299.65
2022-11-27T22:57:36.282Z,101296.14
2022-11-27T23:00:08.098Z,101292.85
2022-11-27T23:02:39.279Z,101290.12
2022-11-27T23:05:08.938Z,101285.95
2022-11-27T23:07:38.289Z,101284.34
2022-11-27T23:10:10.158Z,101291.27
2022-11-27T23:12:39.337Z,101289.57
2022-11-27T23:15:08.241Z,101296.06
2022-11-27T23:17:37.276Z,101295.14
2022-11-27T23:20:07.449Z,101299.14
2022-11-27T23:22:37.278Z,101298.90
2022-11-27T23:25:07.301Z,101300.25
2022-11-27T23:27:36.192Z,101298.49
2022-11-27T23:30:05.259Z,101299.66
2022-11-27T23:32:35.290Z,101300.48
2022-11-27T23:35:05.490Z,101302.41
2022-11-27T23:37:34.863Z,101300.17
2022-11-27T23:40:04.210Z,101296.89
2022-11-27T23:42:36.040Z,101295.27
2022-11-27T23:45:05.552Z,101293.66
2022-11-27T23:47:35.157Z,101288.67
2022-11-27T23:50:05.052Z,101284.63
2022-11-27T23:52:34.486Z,101280.08
2022-11-27T23:55:03.607Z,101280.44
2022-11-27T23:57:32.598Z,101275.51
